createdAt,value
2022-10-30T00:04:49.039Z,3.10
2022-10-30T00:09:50.835Z,3.58
2022-10-30T00:14:52.618Z,2.88
2022-10-30T00:19:54.423Z,3.60
2022-10-30T00:24:56.525Z,3.60
2022-10-30T00:29:58.335Z,4.75
2022-10-30T00:35:00.369Z,4.68
2022-10-30T00:40:02.370Z,4.57
2022-10-30T00:45:04.481Z,4.10
2022-10-30T00:50:12.587Z,5.18
2022-10-30T00:55:19.818Z,4.70
2022-10-30T01:00:24.540Z,5.22
2022-10-30T01:05:28.853Z,6.22
2022-10-30T01:10:30.893Z,4.82
2022-10-30T01:15:41.979Z,4.90
2022-10-30T01:21:20.006Z,4.30
2022-10-30T01:26:59.370Z,4.97
2022-10-30T01:32:21.355Z,5.30
2022-10-30T01:37:31.779Z,5.50
2022-10-30T01:42:52.574Z,5.65
2022-10-30T01:48:01.154Z,5.55
2022-10-30T01:53:28.158Z,5.40
2022-10-30T01:58:41.371Z,4.82
2022-10-30T02:03:44.685Z,4.05
2022-10-30T02:08:46.538Z,3.55
2022-10-30T02:13:51.928Z,3.33
2022-10-30T02:18:54.167Z,3.90
2022-10-30T02:23:56.012Z,3.83
2022-10-30T02:28:57.860Z,2.88
2022-10-30T02:33:59.682Z,3.25
2022-10-30T02:39:02.346Z,3.92
2022-10-30T02:44:05.010Z,4.78
2022-10-30T02:49:06.913Z,4.38
2022-10-30T02:54:08.980Z,5.00
2022-10-30T02:59:10.909Z,6.25
2022-10-30T03:04:12.882Z,5.07
2022-10-30T03:09:14.743Z,6.00
2022-10-30T03:14:16.624Z,5.18
2022-10-30T03:19:19.744Z,5.32
2022-10-30T03:24:21.654Z,5.65
2022-10-30T03:29:23.527Z,4.97
2022-10-30T03:34:25.537Z,4.22
2022-10-30T03:39:27.421Z,4.10
2022-10-30T03:44:29.213Z,4.78
2022-10-30T03:49:31.730Z,4.22
2022-10-30T03:54:35.608Z,4.85
2022-10-30T03:59:37.637Z,4.20
2022-10-30T04:05:02.187Z,3.83
2022-10-30T04:10:04.313Z,3.15
2022-10-30T04:15:08.667Z,3.88
2022-10-30T04:20:10.954Z,3.85
2022-10-30T04:25:13.212Z,3.75
2022-10-30T04:30:15.716Z,3.85
2022-10-30T04:35:19.405Z,3.50
2022-10-30T04:40:23.440Z,3.40
2022-10-30T04:45:31.045Z,3.28
2022-10-30T04:50:34.571Z,3.45
2022-10-30T04:55:36.587Z,3.47
2022-10-30T05:00:38.415Z,2.78
2022-10-30T05:05:56.988Z,3.55
2022-10-30T05:10:59.546Z,2.95
2022-10-30T05:16:01.400Z,2.80
2022-10-30T05:21:03.537Z,3.08
2022-10-30T05:26:05.418Z,3.03
2022-10-30T05:31:07.395Z,2.30
2022-10-30T05:36:35.266Z,3.28
2022-10-30T05:41:38.156Z,1.95
2022-10-30T05:46:40.062Z,2.30
2022-10-30T05:51:58.585Z,2.35
2022-10-30T05:57:00.509Z,1.88
2022-10-30T06:02:03.884Z,2.38
2022-10-30T06:07:06.370Z,2.00
2022-10-30T06:12:09.336Z,1.92
2022-10-30T06:17:24.979Z,2.10
2022-10-30T06:22:35.104Z,1.92
2022-10-30T06:27:46.062Z,1.80
2022-10-30T06:32:48.809Z,2.35
2022-10-30T06:37:51.316Z,2.28
2022-10-30T06:42:54.711Z,2.53
2022-10-30T06:48:26.141Z,2.67
2022-10-30T06:53:29.995Z,2.50
2022-10-30T06:58:47.661Z,1.77
2022-10-30T07:04:09.885Z,2.22
2022-10-30T07:09:12.646Z,2.15
2022-10-30T07:14:14.795Z,2.00
2022-10-30T07:19:28.623Z,2.17
2022-10-30T07:24:31.483Z,2.40
2022-10-30T07:29:51.759Z,1.83
2022-10-30T07:34:59.962Z,2.42
2022-10-30T07:40:28.018Z,2.28
2022-10-30T07:45:54.031Z,2.10
2022-10-30T07:51:11.045Z,2.30
2022-10-30T07:56:12.901Z,2.67
2022-10-30T08:01:40.989Z,3.05
2022-10-30T08:06:55.947Z,2.88
2022-10-30T08:11:57.826Z,3.25
2022-10-30T08:16:59.616Z,2.67
2022-10-30T08:22:02.306Z,2.90
2022-10-30T08:27:08.090Z,3.63
2022-10-30T08:32:10.842Z,3.75
2022-10-30T08:42:33.147Z,4.05
2022-10-30T08:47:39.004Z,3.97
2022-10-30T08:52:42.516Z,4.47
2022-10-30T08:57:45.348Z,3.60
2022-10-30T09:02:47.380Z,2.72
2022-10-30T09:08:21.560Z,4.05
2022-10-30T09:13:52.325Z,3.53
2022-10-30T09:18:54.311Z,3.10
2022-10-30T09:23:57.904Z,2.92
2022-10-30T09:29:11.706Z,6.00
2022-10-30T09:34:16.112Z,3.03
2022-10-30T09:39:21.569Z,2.78
2022-10-30T09:45:08.058Z,3.15
2022-10-30T09:50:14.518Z,3.33
2022-10-30T09:55:33.977Z,4.88
2022-10-30T10:01:09.377Z,5.13
2022-10-30T10:06:18.827Z,5.18
2022-10-30T10:11:56.036Z,5.25
2022-10-30T10:17:01.979Z,5.13
2022-10-30T10:22:14.454Z,5.35
2022-10-30T10:27:35.060Z,5.90
2022-10-30T10:32:51.872Z,5.10
2022-10-30T10:38:17.892Z,5.18
2022-10-30T10:43:22.411Z,5.65
2022-10-30T10:49:04.106Z,5.45
2022-10-30T10:54:19.344Z,5.97
2022-10-30T10:59:32.970Z,7.13
2022-10-30T11:04:41.907Z,5.72
2022-10-30T11:09:44.976Z,8.23
2022-10-30T11:14:46.966Z,9.93
2022-10-30T11:19:52.345Z,8.25
2022-10-30T11:24:54.142Z,9.45
2022-10-30T11:29:59.779Z,9.68
2022-10-30T11:35:07.449Z,10.23
2022-10-30T11:40:12.279Z,9.65
2022-10-30T11:45:24.319Z,9.07
2022-10-30T11:50:32.916Z,9.35
2022-10-30T11:55:54.988Z,10.15
2022-10-30T12:01:21.203Z,9.30
2022-10-30T12:06:22.980Z,8.68
2022-10-30T12:11:32.666Z,9.75
2022-10-30T12:16:34.648Z,8.87
2022-10-30T12:21:39.991Z,8.85
2022-10-30T12:26:46.478Z,7.68
2022-10-30T12:32:19.390Z,9.05
2022-10-30T12:37:30.008Z,8.77
2022-10-30T12:42:38.031Z,9.45
2022-10-30T12:47:48.721Z,10.32
2022-10-30T12:53:34.614Z,9.13
2022-10-30T12:58:39.756Z,10.40
2022-10-30T13:04:10.721Z,9.90
2022-10-30T13:09:37.982Z,9.15
2022-10-30T13:14:50.034Z,8.93
2022-10-30T13:19:51.939Z,8.77
2022-10-30T13:25:14.371Z,7.97
2022-10-30T13:30:20.083Z,8.15
2022-10-30T13:35:33.663Z,8.23
2022-10-30T13:40:44.724Z,9.05
2022-10-30T13:46:11.412Z,8.57
2022-10-30T13:51:35.791Z,8.48
2022-10-30T13:56:38.092Z,7.97
2022-10-30T14:01:47.494Z,8.30
2022-10-30T14:07:10.729Z,9.35
2022-10-30T14:12:53.793Z,8.35
2022-10-30T14:18:14.968Z,9.57
2022-10-30T14:23:20.313Z,9.82
2022-10-30T14:28:22.288Z,10.00
2022-10-30T14:33:54.524Z,9.90
2022-10-30T14:39:00.363Z,9.70
2022-10-30T14:44:25.261Z,9.55
2022-10-30T14:49:45.860Z,10.07
2022-10-30T14:55:29.341Z,9.18
2022-10-30T15:00:37.317Z,10.38
2022-10-30T15:05:49.096Z,10.85
2022-10-30T15:11:22.222Z,11.32
2022-10-30T15:16:27.615Z,10.80
2022-10-30T15:21:34.125Z,10.93
2022-10-30T15:26:39.767Z,11.93
2022-10-30T15:31:41.994Z,10.63
2022-10-30T15:36:44.692Z,11.45
2022-10-30T15:41:51.658Z,11.77
2022-10-30T15:46:57.418Z,11.73
2022-10-30T15:52:01.040Z,13.07
2022-10-30T16:02:29.808Z,12.20
2022-10-30T16:07:32.352Z,13.00
2022-10-30T16:12:36.128Z,14.23
2022-10-30T16:17:38.737Z,12.55
2022-10-30T16:22:41.020Z,12.48
2022-10-30T16:27:44.903Z,11.98
2022-10-30T16:32:55.787Z,12.25
2022-10-30T16:37:58.219Z,14.23
2022-10-30T16:43:03.396Z,14.63
2022-10-30T16:53:22.863Z,16.83
2022-10-30T16:58:28.336Z,18.17
2022-10-30T17:03:37.653Z,17.38
2022-10-30T17:08:43.837Z,16.10
2022-10-30T17:13:54.590Z,16.13
2022-10-30T17:19:20.747Z,15.57
2022-10-30T17:24:28.241Z,15.60
2022-10-30T17:29:42.230Z,14.73
2022-10-30T17:34:44.028Z,14.68
2022-10-30T17:39:45.822Z,14.00
2022-10-30T17:44:47.909Z,15.15
2022-10-30T17:49:49.769Z,17.63
2022-10-30T17:54:51.621Z,18.20
2022-10-30T17:59:53.452Z,18.60
2022-10-30T18:04:55.558Z,17.27
2022-10-30T18:09:57.348Z,20.67
2022-10-30T18:14:59.238Z,22.70
2022-10-30T18:20:01.023Z,18.67
2022-10-30T18:25:02.905Z,19.25
2022-10-30T18:30:05.574Z,19.83
2022-10-30T18:35:36.453Z,15.57
2022-10-30T18:45:42.146Z,7.97
2022-10-30T18:50:44.246Z,9.98
2022-10-30T19:01:10.939Z,10.73
2022-10-30T19:06:16.958Z,15.32
2022-10-30T19:11:24.897Z,16.40
2022-10-30T19:16:28.240Z,13.80
2022-10-30T19:21:33.723Z,11.88
2022-10-30T19:26:35.907Z,10.30
2022-10-30T19:31:38.371Z,7.82
2022-10-30T19:36:40.494Z,7.05
2022-10-30T19:41:42.897Z,5.65
2022-10-30T19:46:45.047Z,5.32
2022-10-30T19:51:47.682Z,4.15
2022-10-30T19:56:49.837Z,3.20
2022-10-30T20:01:52.219Z,3.70
2022-10-30T20:06:57.243Z,3.20
2022-10-30T20:12:01.736Z,3.45
2022-10-30T20:17:03.811Z,2.92
2022-10-30T20:22:05.738Z,2.58
2022-10-30T20:27:10.046Z,2.88
2022-10-30T20:32:12.377Z,2.50
2022-10-30T20:37:14.566Z,2.55
2022-10-30T20:42:20.648Z,3.00
2022-10-30T20:47:22.867Z,3.08
2022-10-30T20:52:24.719Z,2.63
2022-10-30T20:57:26.652Z,2.30
2022-10-30T21:02:28.743Z,2.72
2022-10-30T21:07:31.839Z,2.67
2022-10-30T21:12:33.676Z,2.75
2022-10-30T21:17:35.483Z,2.60
2022-10-30T21:22:37.280Z,2.60
2022-10-30T21:27:39.229Z,2.38
2022-10-30T21:32:41.083Z,2.38
2022-10-30T21:37:42.914Z,2.15
2022-10-30T21:42:48.724Z,2.63
2022-10-30T21:47:53.708Z,2.30
2022-10-30T21:52:55.561Z,2.25
2022-10-30T21:57:57.565Z,2.67
2022-10-30T22:02:59.591Z,2.13
2022-10-30T22:08:01.693Z,1.92
2022-10-30T22:13:04.029Z,2.50
2022-10-30T22:18:05.995Z,2.05
2022-10-30T22:23:07.800Z,1.48
2022-10-30T22:28:09.648Z,2.13
2022-10-30T22:33:11.496Z,1.50
2022-10-30T22:38:14.113Z,1.65
2022-10-30T22:48:17.814Z,1.92
2022-10-30T22:53:19.630Z,2.03
2022-10-30T22:58:22.471Z,1.60
2022-10-30T23:03:24.347Z,2.03
2022-10-30T23:08:26.601Z,2.60
2022-10-30T23:13:28.822Z,2.08
2022-10-30T23:18:31.960Z,1.88
2022-10-30T23:23:38.297Z,2.08
2022-10-30T23:28:40.859Z,1.50
2022-10-30T23:33:42.701Z,2.15
2022-10-30T23:38:44.809Z,1.75
2022-10-30T23:43:46.691Z,2.03
2022-10-30T23:48:49.249Z,1.58
2022-10-30T23:53:51.123Z,1.40
2022-10-30T23:58:53.149Z,1.88
